logo
Search for airport 
image banner adimage banner adimage banner ad
image banner ad

SVEQ - Estacion Cps-4

Located in Lago De Maracaibo, Venezuela

ICAO - , IATA -

Data provided by Airmate  

General information

Coordinates: N9°43'0" W71°10'42"
Elevation is feet MSL.
 
View others Airports in Zulia

Operational data

Special qualification required
Current time UTC:
Current local time:
Weather at : - ( 0 km )
METAR: SBCR 191420Z 04006KT 010V100 5000 FU NSC 30/19 Q1013
View NOTAMs / SUP AIP / TFR affecting this airport [VIEW]
Communications frequencies: [VIEW]

Runways:

Airport contact information

Address: Lago De Maracaibo Venezuela

Satellite view of SVEQ